createdAt,value
2019-06-10T00:00:31.234Z,72.22
2019-06-10T00:01:33.766Z,73.12
2019-06-10T00:02:38.135Z,73.58
2019-06-10T00:03:42.461Z,73.38
2019-06-10T00:04:46.882Z,73.71
2019-06-10T00:05:51.766Z,73.92
2019-06-10T00:06:55.778Z,74.26
2019-06-10T00:08:02.394Z,74.53
2019-06-10T00:09:06.426Z,74.47
2019-06-10T00:10:10.654Z,74.19
2019-06-10T00:11:12.805Z,74.60
2019-06-10T00:12:17.130Z,74.64
2019-06-10T00:13:21.430Z,74.86
2019-06-10T00:14:25.892Z,75.28
2019-06-10T00:15:31.374Z,75.14
2019-06-10T00:16:34.554Z,75.25
2019-06-10T00:17:53.127Z,75.42
2019-06-10T00:18:45.757Z,75.56
2019-06-10T00:19:47.514Z,75.59
2019-06-10T00:20:51.793Z,75.80
2019-06-10T00:21:57.324Z,75.43
2019-06-10T00:23:02.506Z,75.77
2019-06-10T00:24:05.769Z,75.75
2019-06-10T00:25:09.137Z,75.45
2019-06-10T00:26:13.514Z,75.69
2019-06-10T00:27:17.780Z,75.71
2019-06-10T00:28:22.111Z,75.69
2019-06-10T00:29:26.414Z,75.70
2019-06-10T00:30:31.350Z,75.63
2019-06-10T00:31:35.086Z,75.52
2019-06-10T00:32:41.193Z,75.78
2019-06-10T00:33:43.897Z,75.54
2019-06-10T00:34:50.410Z,75.27
2019-06-10T00:35:52.518Z,75.53
2019-06-10T00:36:56.814Z,75.73
2019-06-10T00:38:02.558Z,75.56
2019-06-10T00:39:06.843Z,75.26
2019-06-10T00:40:13.728Z,75.28
2019-06-10T00:41:14.379Z,75.20
2019-06-10T00:42:21.142Z,74.94
2019-06-10T00:43:22.808Z,75.38
2019-06-10T00:44:27.123Z,75.05
2019-06-10T00:45:31.655Z,74.65
2019-06-10T00:46:35.931Z,75.54
2019-06-10T00:47:41.437Z,75.50
2019-06-10T00:48:44.576Z,75.13
2019-06-10T00:49:51.292Z,75.55
2019-06-10T00:50:53.271Z,75.91
2019-06-10T00:52:01.600Z,76.03
2019-06-10T00:53:05.879Z,76.14
2019-06-10T00:54:10.319Z,76.23
2019-06-10T00:55:13.922Z,76.37
2019-06-10T00:56:17.405Z,76.40
2019-06-10T00:57:21.697Z,76.33
2019-06-10T00:58:26.080Z,76.21
2019-06-10T00:59:31.187Z,76.36
2019-06-10T01:00:34.840Z,76.30
2019-06-10T01:01:41.405Z,76.58
2019-06-10T01:02:43.594Z,76.58
2019-06-10T01:03:47.949Z,76.67
2019-06-10T01:04:52.314Z,76.63
2019-06-10T01:05:56.635Z,76.70
2019-06-10T01:07:02.370Z,76.64
2019-06-10T01:08:06.597Z,76.68
2019-06-10T01:09:12.770Z,76.86
2019-06-10T01:10:14.666Z,76.83
2019-06-10T01:11:25.841Z,76.88
2019-06-10T01:12:23.031Z,76.51
2019-06-10T01:13:27.436Z,76.74
2019-06-10T01:14:32.051Z,76.93
2019-06-10T01:15:36.123Z,76.80
2019-06-10T01:16:41.178Z,76.78
2019-06-10T01:17:44.978Z,77.15
2019-06-10T01:18:51.077Z,77.09
2019-06-10T01:19:53.735Z,77.13
2019-06-10T01:20:58.104Z,77.53
2019-06-10T01:22:02.489Z,77.55
2019-06-10T01:23:07.036Z,77.71
2019-06-10T01:24:12.097Z,77.84
2019-06-10T01:25:15.594Z,77.96
2019-06-10T01:26:21.618Z,78.26
2019-06-10T01:27:24.334Z,78.14
2019-06-10T01:28:31.199Z,78.17
2019-06-10T01:29:33.135Z,78.08
2019-06-10T01:30:37.528Z,78.40
2019-06-10T01:31:42.108Z,78.28
2019-06-10T01:32:46.328Z,78.17
2019-06-10T01:33:51.341Z,78.37
2019-06-10T01:34:55.041Z,78.29
2019-06-10T01:36:00.746Z,78.38
2019-06-10T01:37:03.901Z,78.34
2019-06-10T01:38:08.357Z,78.56
2019-06-10T01:39:14.741Z,78.42
2019-06-10T01:40:18.001Z,78.44
2019-06-10T01:41:21.629Z,78.54
2019-06-10T01:42:25.986Z,78.39
2019-06-10T01:43:32.003Z,78.29
2019-06-10T01:44:34.735Z,78.30
2019-06-10T01:45:41.596Z,78.06
2019-06-10T01:46:43.545Z,78.17
2019-06-10T01:47:47.924Z,78.32
2019-06-10T01:48:52.397Z,78.48
2019-06-10T01:49:56.770Z,78.35
2019-06-10T01:51:01.796Z,78.32
2019-06-10T01:52:05.457Z,78.24
2019-06-10T01:53:12.667Z,78.37
2019-06-10T01:54:15.596Z,78.19
2019-06-10T01:55:18.735Z,78.09
2019-06-10T01:56:23.032Z,77.94
2019-06-10T01:57:27.393Z,77.91
2019-06-10T01:58:31.798Z,78.10
2019-06-10T01:59:36.154Z,78.25
2019-06-10T02:00:41.817Z,78.13
2019-06-10T02:01:44.887Z,78.23
2019-06-10T02:02:52.205Z,78.00
2019-06-10T02:03:53.706Z,78.26
2019-06-10T02:04:58.180Z,78.28
2019-06-10T02:06:02.600Z,78.41
2019-06-10T02:07:06.924Z,78.28
2019-06-10T02:08:12.987Z,78.26
2019-06-10T02:09:17.226Z,78.36
2019-06-10T02:10:22.815Z,78.51
2019-06-10T02:11:24.499Z,77.95
2019-06-10T02:12:31.332Z,78.38
2019-06-10T02:13:33.616Z,78.63
2019-06-10T02:14:37.570Z,78.97
2019-06-10T02:15:41.922Z,79.25
2019-06-10T02:16:46.266Z,79.46
2019-06-10T02:17:51.049Z,79.45
2019-06-10T02:19:00.409Z,79.61
2019-06-10T02:20:01.163Z,79.84
2019-06-10T02:21:03.833Z,79.89
2019-06-10T02:22:08.204Z,79.72
2019-06-10T02:23:14.119Z,80.54
2019-06-10T02:24:17.637Z,80.18
2019-06-10T02:25:22.915Z,79.74
2019-06-10T02:26:25.905Z,80.31
2019-06-10T02:27:31.491Z,80.60
2019-06-10T02:28:34.720Z,80.40
2019-06-10T02:29:41.112Z,79.98
2019-06-10T02:30:50.761Z,80.47
2019-06-10T02:31:47.835Z,80.40
2019-06-10T02:32:52.519Z,80.57
2019-06-10T02:33:56.673Z,79.90
2019-06-10T02:35:08.553Z,80.04
2019-06-10T02:36:05.532Z,80.00
2019-06-10T02:37:13.646Z,80.02
2019-06-10T02:38:19.868Z,80.40
2019-06-10T02:39:25.869Z,80.03
2019-06-10T02:40:31.368Z,79.96
2019-06-10T02:41:31.826Z,79.76
2019-06-10T02:42:35.508Z,79.75
2019-06-10T02:43:37.951Z,79.96
2019-06-10T02:44:40.502Z,80.12
2019-06-10T02:45:44.953Z,80.34
2019-06-10T02:46:49.358Z,79.64
2019-06-10T02:47:53.661Z,80.16
2019-06-10T02:49:19.892Z,79.69
2019-06-10T02:50:07.327Z,79.38
2019-06-10T02:51:06.880Z,80.12
2019-06-10T02:52:13.919Z,79.85
2019-06-10T02:53:17.209Z,80.13
2019-06-10T02:54:22.999Z,79.95
2019-06-10T02:55:30.542Z,80.23
2019-06-10T02:56:32.133Z,80.28
2019-06-10T02:57:39.822Z,80.28
2019-06-10T02:58:39.499Z,80.50
2019-06-10T02:59:43.546Z,80.57
2019-06-10T03:00:48.917Z,80.44
2019-06-10T03:01:53.449Z,80.41
2019-06-10T03:02:55.120Z,80.37
2019-06-10T03:03:59.468Z,80.26
2019-06-10T03:05:04.757Z,80.22
2019-06-10T03:06:09.052Z,80.13
2019-06-10T03:07:13.773Z,80.49
2019-06-10T03:08:18.553Z,80.51
2019-06-10T03:09:26.422Z,80.50
2019-06-10T03:10:32.382Z,80.33
2019-06-10T03:11:35.669Z,80.47
2019-06-10T03:12:34.566Z,80.51
2019-06-10T03:13:38.943Z,80.37
2019-06-10T03:14:43.388Z,80.42
2019-06-10T03:15:47.821Z,80.21
2019-06-10T03:16:52.755Z,80.26
2019-06-10T03:17:56.492Z,80.28
2019-06-10T03:19:02.906Z,80.22
2019-06-10T03:20:05.245Z,80.33
2019-06-10T03:21:09.633Z,80.27
2019-06-10T03:22:14.080Z,79.84
2019-06-10T03:23:18.520Z,80.28
2019-06-10T03:24:25.099Z,80.11
2019-06-10T03:25:27.753Z,79.66
2019-06-10T03:26:32.271Z,80.00
2019-06-10T03:27:35.996Z,79.74
2019-06-10T03:28:42.570Z,80.40
2019-06-10T03:29:44.761Z,79.87
2019-06-10T03:30:54.175Z,79.77
2019-06-10T03:31:55.273Z,79.78
2019-06-10T03:32:57.908Z,79.39
2019-06-10T03:34:05.000Z,79.98
2019-06-10T03:35:06.664Z,79.58
2019-06-10T03:36:12.392Z,79.31
2019-06-10T03:37:16.324Z,79.29
2019-06-10T03:38:20.866Z,78.75
2019-06-10T03:39:26.884Z,78.97
2019-06-10T03:40:28.636Z,78.99
2019-06-10T03:41:33.004Z,78.99
2019-06-10T03:42:37.357Z,79.38
2019-06-10T03:43:43.010Z,79.79
2019-06-10T03:44:46.166Z,79.25
2019-06-10T03:45:53.048Z,79.36
2019-06-10T03:46:54.980Z,79.88
2019-06-10T03:47:59.324Z,79.34
2019-06-10T03:49:03.694Z,79.06
2019-06-10T03:50:08.057Z,79.68
2019-06-10T03:51:12.861Z,79.31
2019-06-10T03:52:17.166Z,79.93
2019-06-10T03:53:23.979Z,79.47
2019-06-10T03:54:28.211Z,79.37
2019-06-10T03:55:30.038Z,79.94
2019-06-10T03:56:34.425Z,79.95
2019-06-10T03:57:38.901Z,79.75
2019-06-10T03:58:43.381Z,79.26
2019-06-10T03:59:47.600Z,80.26
2019-06-10T04:00:52.325Z,80.01
2019-06-10T04:01:56.532Z,79.71
2019-06-10T04:03:02.716Z,79.77
2019-06-10T04:04:05.162Z,79.76
2019-06-10T04:05:09.545Z,80.04
2019-06-10T04:06:13.928Z,80.20
2019-06-10T04:07:20.128Z,79.83
2019-06-10T04:08:24.885Z,79.47
2019-06-10T04:09:27.592Z,79.91
2019-06-10T04:10:32.465Z,79.69
2019-06-10T04:11:35.815Z,80.00
2019-06-10T04:12:40.221Z,79.85
2019-06-10T04:13:44.573Z,80.10
2019-06-10T04:14:48.968Z,80.06
2019-06-10T04:15:53.525Z,80.37
2019-06-10T04:16:57.720Z,79.75
2019-06-10T04:18:03.947Z,80.10
2019-06-10T04:19:06.528Z,79.86
2019-06-10T04:20:13.229Z,79.55
2019-06-10T04:21:15.274Z,79.81
2019-06-10T04:22:19.669Z,80.11
2019-06-10T04:23:25.470Z,79.81
2019-06-10T04:24:28.707Z,80.19
2019-06-10T04:25:32.840Z,80.22
2019-06-10T04:26:37.233Z,80.64
2019-06-10T04:27:42.470Z,80.27
2019-06-10T04:28:46.012Z,80.05
2019-06-10T04:29:52.420Z,80.01
2019-06-10T04:30:54.762Z,80.09
2019-06-10T04:31:59.151Z,79.83
2019-06-10T04:33:03.516Z,79.85
2019-06-10T04:34:07.906Z,79.73
2019-06-10T04:35:12.725Z,80.23
2019-06-10T04:36:16.666Z,80.48
2019-06-10T04:37:23.385Z,80.51
2019-06-10T04:38:26.354Z,80.32
2019-06-10T04:39:29.772Z,79.71
2019-06-10T04:40:34.160Z,79.61
2019-06-10T04:41:38.534Z,80.14
2019-06-10T04:42:43.573Z,80.27
2019-06-10T04:43:47.435Z,80.48
2019-06-10T04:44:52.544Z,80.33
2019-06-10T04:45:56.168Z,80.39
2019-06-10T04:47:02.620Z,80.21
2019-06-10T04:48:04.949Z,80.32
2019-06-10T04:49:09.312Z,80.59
2019-06-10T04:50:24.785Z,79.86
2019-06-10T04:51:18.685Z,79.93
2019-06-10T04:52:23.610Z,79.38
2019-06-10T04:53:28.285Z,79.69
2019-06-10T04:54:34.335Z,80.39
2019-06-10T04:55:37.827Z,80.35
2019-06-10T04:56:42.769Z,79.87
2019-06-10T04:57:46.513Z,79.78
2019-06-10T04:58:52.582Z,80.28
2019-06-10T04:59:55.283Z,80.40
2019-06-10T05:00:59.631Z,80.25
2019-06-10T05:02:05.710Z,80.41
2019-06-10T05:03:08.434Z,80.36
2019-06-10T05:04:12.828Z,80.78
2019-06-10T05:05:17.191Z,81.13
2019-06-10T05:06:23.767Z,81.22
2019-06-10T05:07:27.946Z,81.36
2019-06-10T05:08:30.337Z,81.59
2019-06-10T05:09:34.732Z,81.40
2019-06-10T05:10:39.074Z,81.26
2019-06-10T05:11:43.450Z,81.27
2019-06-10T05:12:47.821Z,81.35
2019-06-10T05:13:53.309Z,81.25
2019-06-10T05:14:56.589Z,81.11
2019-06-10T05:16:03.344Z,81.27
2019-06-10T05:17:05.338Z,80.80
2019-06-10T05:18:09.716Z,81.22
2019-06-10T05:19:14.111Z,80.59
2019-06-10T05:20:19.715Z,81.12
2019-06-10T05:21:25.095Z,81.38
2019-06-10T05:22:28.425Z,81.21
2019-06-10T05:23:32.843Z,81.16
2019-06-10T05:24:36.054Z,81.40
2019-06-10T05:25:42.646Z,81.10
2019-06-10T05:26:44.811Z,80.80
2019-06-10T05:27:49.198Z,80.96
2019-06-10T05:28:53.598Z,81.46
2019-06-10T05:29:57.957Z,80.74
2019-06-10T05:31:02.996Z,81.28
2019-06-10T05:32:06.728Z,82.12
2019-06-10T05:33:13.321Z,82.08
2019-06-10T05:34:15.507Z,82.30
2019-06-10T05:35:21.020Z,82.44
2019-06-10T05:36:27.504Z,82.59
2019-06-10T05:37:29.332Z,82.54
2019-06-10T05:38:35.333Z,82.52
2019-06-10T05:39:37.399Z,82.60
2019-06-10T05:40:42.719Z,82.27
2019-06-10T05:41:46.113Z,82.08
2019-06-10T05:42:52.746Z,81.98
2019-06-10T05:43:55.003Z,81.98
2019-06-10T05:44:59.376Z,81.94
2019-06-10T05:46:03.797Z,81.86
2019-06-10T05:47:08.152Z,81.99
2019-06-10T05:48:16.614Z,82.05
2019-06-10T05:49:16.920Z,81.75
2019-06-10T05:50:22.483Z,81.98
2019-06-10T05:51:26.406Z,82.19
2019-06-10T05:52:31.426Z,82.21
2019-06-10T05:53:35.542Z,82.06
2019-06-10T05:54:38.907Z,82.17
2019-06-10T05:55:43.331Z,81.88
2019-06-10T05:56:47.716Z,82.06
2019-06-10T05:57:53.268Z,81.66
2019-06-10T05:58:56.526Z,81.67
2019-06-10T06:00:10.734Z,81.34
2019-06-10T06:01:05.316Z,81.52
2019-06-10T06:02:09.684Z,81.26
2019-06-10T06:03:14.080Z,81.36
2019-06-10T06:04:18.488Z,81.45
2019-06-10T06:05:23.894Z,81.19
2019-06-10T06:06:27.287Z,81.02
2019-06-10T06:07:33.879Z,80.93
2019-06-10T06:08:36.091Z,81.18
2019-06-10T06:09:42.578Z,81.00
2019-06-10T06:10:44.897Z,81.18
2019-06-10T06:11:49.270Z,81.47
2019-06-10T06:12:53.647Z,80.97
2019-06-10T06:13:58.062Z,80.69
2019-06-10T06:15:02.556Z,80.11
2019-06-10T06:16:06.899Z,80.15
2019-06-10T06:17:12.718Z,80.24
2019-06-10T06:18:15.679Z,80.05
2019-06-10T06:19:20.102Z,80.19
2019-06-10T06:20:25.084Z,79.94
2019-06-10T06:21:32.446Z,79.66
2019-06-10T06:22:35.520Z,79.67
2019-06-10T06:23:38.282Z,79.77
2019-06-10T06:24:42.791Z,79.59
2019-06-10T06:25:47.053Z,79.59
2019-06-10T06:26:53.253Z,79.54
2019-06-10T06:27:55.325Z,79.50
2019-06-10T06:29:02.104Z,79.38
2019-06-10T06:30:11.397Z,79.32
2019-06-10T06:31:08.549Z,79.40
2019-06-10T06:32:13.288Z,79.60
2019-06-10T06:33:17.326Z,79.60
2019-06-10T06:34:22.543Z,79.45
2019-06-10T06:35:26.406Z,79.58
2019-06-10T06:36:32.908Z,79.93
2019-06-10T06:37:37.705Z,79.83
2019-06-10T06:38:39.262Z,79.53
2019-06-10T06:39:43.652Z,79.35
2019-06-10T06:40:53.756Z,79.37
2019-06-10T06:41:54.539Z,79.29
2019-06-10T06:42:58.899Z,79.37
2019-06-10T06:44:03.268Z,79.22
2019-06-10T06:45:07.639Z,79.57
2019-06-10T06:46:12.846Z,79.71
2019-06-10T06:47:16.434Z,79.37
2019-06-10T06:48:22.741Z,79.67
2019-06-10T06:49:25.249Z,79.55
2019-06-10T06:50:30.836Z,79.80
2019-06-10T06:51:49.510Z,79.80
2019-06-10T06:53:12.579Z,80.17
2019-06-10T06:53:51.699Z,80.14
2019-06-10T06:54:49.302Z,79.86
2019-06-10T06:55:55.990Z,79.46
2019-06-10T06:56:58.095Z,79.35
2019-06-10T06:58:03.384Z,79.49
2019-06-10T06:59:06.883Z,79.55
2019-06-10T07:00:37.349Z,78.88
2019-06-10T07:01:15.762Z,78.97
2019-06-10T07:02:22.566Z,79.17
2019-06-10T07:03:24.526Z,77.99
2019-06-10T07:04:29.641Z,78.27
2019-06-10T07:05:35.508Z,78.54
2019-06-10T07:06:38.632Z,78.37
2019-06-10T07:07:43.322Z,77.36
2019-06-10T07:09:00.414Z,77.44
2019-06-10T07:09:52.659Z,77.62
2019-06-10T07:10:55.435Z,76.56
2019-06-10T07:12:02.375Z,76.72
2019-06-10T07:13:04.220Z,77.38
2019-06-10T07:14:10.169Z,77.23
2019-06-10T07:15:13.004Z,77.08
2019-06-10T07:16:17.383Z,76.89
2019-06-10T07:17:22.736Z,76.98
2019-06-10T07:18:26.225Z,76.88
2019-06-10T07:19:33.986Z,77.01
2019-06-10T07:20:37.631Z,77.18
2019-06-10T07:21:58.394Z,76.30
2019-06-10T07:22:46.625Z,76.13
2019-06-10T07:23:48.288Z,76.37
2019-06-10T07:24:53.035Z,76.51
2019-06-10T07:25:57.038Z,76.46
2019-06-10T07:27:02.724Z,75.85
2019-06-10T07:28:05.902Z,75.75
2019-06-10T07:29:13.020Z,74.15
2019-06-10T07:30:15.139Z,74.92
2019-06-10T07:31:24.114Z,74.92
2019-06-10T07:32:23.599Z,73.91
2019-06-10T07:33:28.019Z,74.73
2019-06-10T07:34:34.000Z,73.56
2019-06-10T07:35:37.286Z,73.80
2019-06-10T07:36:43.555Z,73.14
2019-06-10T07:37:46.174Z,74.27
2019-06-10T07:38:53.578Z,73.56
2019-06-10T07:39:54.702Z,73.56
2019-06-10T07:40:59.127Z,72.28
2019-06-10T07:42:03.536Z,71.78
2019-06-10T07:43:07.966Z,71.93
2019-06-10T07:44:12.602Z,72.76
2019-06-10T07:45:16.795Z,72.49
2019-06-10T07:46:22.977Z,73.47
2019-06-10T07:47:25.631Z,71.22
2019-06-10T07:48:30.043Z,72.15
2019-06-10T07:49:35.381Z,71.34
2019-06-10T07:50:39.327Z,71.67
2019-06-10T07:51:46.130Z,71.85
2019-06-10T07:52:47.668Z,71.59
2019-06-10T07:53:52.792Z,71.56
2019-06-10T07:54:56.713Z,71.15
2019-06-10T07:56:03.246Z,71.08
2019-06-10T07:57:05.528Z,70.96
2019-06-10T07:58:13.082Z,70.92
2019-06-10T07:59:16.522Z,70.46
2019-06-10T08:00:22.722Z,70.83
2019-06-10T08:01:25.325Z,69.75
2019-06-10T08:02:32.177Z,69.87
2019-06-10T08:03:35.272Z,70.15
2019-06-10T08:04:39.838Z,70.01
2019-06-10T08:05:45.062Z,68.86
2019-06-10T08:06:49.897Z,69.88
2019-06-10T08:07:54.744Z,69.76
2019-06-10T08:08:56.613Z,70.45
2019-06-10T08:10:02.907Z,70.06
2019-06-10T08:11:05.426Z,69.63
2019-06-10T08:12:09.852Z,69.14
2019-06-10T08:13:14.289Z,69.56
2019-06-10T08:14:18.848Z,70.34
2019-06-10T08:15:23.256Z,70.73
2019-06-10T08:16:27.668Z,71.17
2019-06-10T08:17:32.810Z,71.40
2019-06-10T08:18:48.589Z,71.36
2019-06-10T08:19:46.238Z,71.42
2019-06-10T08:20:45.517Z,72.05
2019-06-10T08:21:50.017Z,72.04
2019-06-10T08:22:57.629Z,72.08
2019-06-10T08:23:58.933Z,72.11
2019-06-10T08:25:04.865Z,71.71
2019-06-10T08:26:07.757Z,71.68
2019-06-10T08:27:12.194Z,71.81
2019-06-10T08:28:16.662Z,72.07
2019-06-10T08:29:23.227Z,73.30
2019-06-10T08:30:27.544Z,72.43
2019-06-10T08:31:29.946Z,71.14
2019-06-10T08:32:35.964Z,71.94
2019-06-10T08:33:39.068Z,71.69
2019-06-10T08:34:45.012Z,72.01
2019-06-10T08:35:56.391Z,71.98
2019-06-10T08:36:54.472Z,70.03
2019-06-10T08:37:56.535Z,70.72
2019-06-10T08:39:03.203Z,71.58
2019-06-10T08:40:05.446Z,71.02
2019-06-10T08:41:12.095Z,71.31
2019-06-10T08:42:14.270Z,71.28
2019-06-10T08:43:18.714Z,71.50
2019-06-10T08:44:23.209Z,71.85
2019-06-10T08:45:27.611Z,71.82
2019-06-10T08:46:32.989Z,72.03
2019-06-10T08:47:37.064Z,71.64
2019-06-10T08:48:43.417Z,70.24
2019-06-10T08:49:47.299Z,70.72
2019-06-10T08:50:50.740Z,70.54
2019-06-10T08:51:54.285Z,70.84
2019-06-10T08:53:10.434Z,70.80
2019-06-10T08:54:03.458Z,71.00
2019-06-10T08:55:07.433Z,71.33
2019-06-10T08:56:13.048Z,71.52
2019-06-10T08:57:16.236Z,71.40
2019-06-10T08:58:23.068Z,71.32
2019-06-10T08:59:25.054Z,71.72
2019-06-10T09:00:29.531Z,71.45
2019-06-10T09:01:34.019Z,71.44
2019-06-10T09:02:39.762Z,69.98
2019-06-10T09:03:47.427Z,70.79
2019-06-10T09:04:50.326Z,70.91
2019-06-10T09:05:53.931Z,71.06
2019-06-10T09:06:56.214Z,70.13
2019-06-10T09:08:02.824Z,69.85
2019-06-10T09:09:05.172Z,70.48
2019-06-10T09:10:09.552Z,70.75
2019-06-10T09:11:14.005Z,70.88
2019-06-10T09:12:30.349Z,70.26
2019-06-10T09:13:22.841Z,70.35
2019-06-10T09:14:27.270Z,70.32
2019-06-10T09:15:32.490Z,70.59
2019-06-10T09:16:36.268Z,70.64
2019-06-10T09:17:44.371Z,69.31
2019-06-10T09:18:48.021Z,69.53
2019-06-10T09:19:51.287Z,70.68
2019-06-10T09:20:56.096Z,69.40
2019-06-10T09:21:58.484Z,68.60
2019-06-10T09:23:18.171Z,68.87
2019-06-10T09:24:07.412Z,69.36
2019-06-10T09:25:12.382Z,68.29
2019-06-10T09:26:16.307Z,68.71
2019-06-10T09:27:26.090Z,68.46
2019-06-10T09:28:25.159Z,68.26
2019-06-10T09:29:29.578Z,67.80
2019-06-10T09:30:37.041Z,68.01
2019-06-10T09:31:45.576Z,66.65
2019-06-10T09:32:48.527Z,67.85
2019-06-10T09:33:53.282Z,67.85
2019-06-10T09:34:57.414Z,67.86
2019-06-10T09:35:58.418Z,67.99
2019-06-10T09:37:03.510Z,67.40
2019-06-10T09:38:07.248Z,67.31
2019-06-10T09:39:12.477Z,66.75
2019-06-10T09:40:16.244Z,66.21
2019-06-10T09:41:30.904Z,66.44
2019-06-10T09:42:25.159Z,67.25
2019-06-10T09:43:29.532Z,67.26
2019-06-10T09:44:34.113Z,67.75
2019-06-10T09:45:38.379Z,67.65
2019-06-10T09:46:47.011Z,66.94
2019-06-10T09:47:51.842Z,67.54
2019-06-10T09:48:55.757Z,68.24
2019-06-10T09:49:56.113Z,68.39
2019-06-10T09:51:02.510Z,68.61
2019-06-10T09:52:05.063Z,67.96
2019-06-10T09:53:09.495Z,68.20
2019-06-10T09:54:13.902Z,66.80
2019-06-10T09:55:18.299Z,67.85
2019-06-10T09:56:23.491Z,67.64
2019-06-10T09:57:27.272Z,67.49
2019-06-10T09:58:32.907Z,68.18
2019-06-10T09:59:36.129Z,68.80
2019-06-10T10:00:41.807Z,68.89
2019-06-10T10:01:49.051Z,69.00
2019-06-10T10:02:52.074Z,68.80
2019-06-10T10:03:59.797Z,69.22
2019-06-10T10:04:58.771Z,69.14
2019-06-10T10:06:11.726Z,69.02
2019-06-10T10:07:07.485Z,68.79
2019-06-10T10:08:12.669Z,68.43
2019-06-10T10:09:16.158Z,68.30
2019-06-10T10:10:23.425Z,68.05
2019-06-10T10:11:28.451Z,68.41
2019-06-10T10:12:32.176Z,67.71
2019-06-10T10:13:35.268Z,68.17
2019-06-10T10:14:38.464Z,67.94
2019-06-10T10:15:43.579Z,68.18
2019-06-10T10:16:52.251Z,67.23
2019-06-10T10:17:56.230Z,67.72
2019-06-10T10:19:00.250Z,68.26
2019-06-10T10:20:03.035Z,68.67
2019-06-10T10:21:05.096Z,69.09
2019-06-10T10:22:11.695Z,69.35
2019-06-10T10:23:14.107Z,69.40
2019-06-10T10:24:18.521Z,69.31
2019-06-10T10:25:23.554Z,69.63
2019-06-10T10:26:27.387Z,69.96
2019-06-10T10:27:32.378Z,69.74
2019-06-10T10:28:36.277Z,69.48
2019-06-10T10:29:43.642Z,69.09
2019-06-10T10:30:48.734Z,68.95
2019-06-10T10:31:52.402Z,69.02
2019-06-10T10:32:54.132Z,68.58
2019-06-10T10:33:58.567Z,68.58
2019-06-10T10:35:04.023Z,68.83
2019-06-10T10:36:07.433Z,68.63
2019-06-10T10:37:12.347Z,68.26
2019-06-10T10:38:16.423Z,69.30
2019-06-10T10:39:24.336Z,69.06
2019-06-10T10:40:25.254Z,69.07
2019-06-10T10:41:32.145Z,69.18
2019-06-10T10:42:45.028Z,70.19
2019-06-10T10:43:38.574Z,69.54
2019-06-10T10:44:46.146Z,69.37
2019-06-10T10:45:50.325Z,68.04
2019-06-10T10:46:54.053Z,68.86
2019-06-10T10:47:57.744Z,68.14
2019-06-10T10:49:02.717Z,68.54
2019-06-10T10:50:05.374Z,67.98
2019-06-10T10:51:12.662Z,68.01
2019-06-10T10:52:14.359Z,68.13
2019-06-10T10:53:18.891Z,66.04
2019-06-10T10:54:33.017Z,66.82
2019-06-10T10:55:27.798Z,67.26
2019-06-10T10:56:33.985Z,67.71
2019-06-10T10:57:36.783Z,67.49
2019-06-10T10:58:43.713Z,67.73
2019-06-10T10:59:46.559Z,67.69
2019-06-10T11:00:53.986Z,67.42
2019-06-10T11:01:54.678Z,66.46
2019-06-10T11:02:59.202Z,66.08
2019-06-10T11:04:03.980Z,66.73
2019-06-10T11:05:08.154Z,66.80
2019-06-10T11:06:13.003Z,66.88
2019-06-10T11:07:17.073Z,65.75
2019-06-10T11:08:22.828Z,65.42
2019-06-10T11:09:26.232Z,65.71
2019-06-10T11:10:32.998Z,64.65
2019-06-10T11:11:35.121Z,65.82
2019-06-10T11:12:39.519Z,64.82
2019-06-10T11:13:45.396Z,64.15
2019-06-10T11:14:49.253Z,65.69
2019-06-10T11:15:55.370Z,65.95
2019-06-10T11:16:58.979Z,66.12
2019-06-10T11:18:03.877Z,65.36
2019-06-10T11:19:06.569Z,65.18
2019-06-10T11:20:13.564Z,65.98
2019-06-10T11:21:15.471Z,65.82
2019-06-10T11:22:22.898Z,66.26
2019-06-10T11:23:24.416Z,65.92
2019-06-10T11:24:36.327Z,65.84
2019-06-10T11:25:33.374Z,66.80
2019-06-10T11:26:37.923Z,66.38
2019-06-10T11:27:43.131Z,65.43
2019-06-10T11:28:47.477Z,66.12
2019-06-10T11:29:53.622Z,65.45
2019-06-10T11:30:58.249Z,65.51
2019-06-10T11:32:02.303Z,65.56
2019-06-10T11:33:04.645Z,65.20
2019-06-10T11:34:09.145Z,65.55
2019-06-10T11:35:13.593Z,66.02
2019-06-10T11:36:18.064Z,66.68
2019-06-10T11:37:23.131Z,66.38
2019-06-10T11:38:27.049Z,65.64
2019-06-10T11:39:33.289Z,66.08
2019-06-10T11:40:35.966Z,66.02
2019-06-10T11:41:42.878Z,66.66
2019-06-10T11:42:46.200Z,66.73
2019-06-10T11:43:51.159Z,67.43
2019-06-10T11:44:57.385Z,68.21
2019-06-10T11:46:03.467Z,67.59
2019-06-10T11:47:03.257Z,66.68
2019-06-10T11:48:07.244Z,66.73
2019-06-10T11:49:12.565Z,67.13
2019-06-10T11:50:16.183Z,66.67
2019-06-10T11:51:23.249Z,66.83
2019-06-10T11:52:25.147Z,67.49
2019-06-10T11:53:29.577Z,67.61
2019-06-10T11:54:50.329Z,66.82
2019-06-10T11:55:38.819Z,66.42
2019-06-10T11:56:42.928Z,66.10
2019-06-10T11:57:47.861Z,66.65
2019-06-10T11:58:55.115Z,66.49
2019-06-10T11:59:57.774Z,66.78
2019-06-10T12:01:03.772Z,67.14
2019-06-10T12:02:06.175Z,66.86
2019-06-10T12:03:09.701Z,67.23
2019-06-10T12:04:14.217Z,67.45
2019-06-10T12:05:20.500Z,66.64
2019-06-10T12:06:23.159Z,67.42
2019-06-10T12:07:27.577Z,67.06
2019-06-10T12:08:32.845Z,66.62
2019-06-10T12:09:36.516Z,67.48
2019-06-10T12:10:43.238Z,67.87
2019-06-10T12:11:45.432Z,67.67
2019-06-10T12:12:54.053Z,67.56
2019-06-10T12:14:01.935Z,65.84
2019-06-10T12:15:01.265Z,65.98
2019-06-10T12:17:40.487Z,66.22
2019-06-10T12:18:13.203Z,66.40
2019-06-10T12:19:16.719Z,66.66
2019-06-10T12:20:22.860Z,67.22
2019-06-10T12:21:25.646Z,65.69
2019-06-10T12:22:30.135Z,65.96
2019-06-10T12:23:34.620Z,66.59
2019-06-10T12:24:39.111Z,66.37
2019-06-10T12:25:43.803Z,66.29
2019-06-10T12:26:48.046Z,67.24
2019-06-10T12:27:57.405Z,66.88
2019-06-10T12:28:59.375Z,66.18
2019-06-10T12:30:04.782Z,66.50
2019-06-10T12:31:07.151Z,66.38
2019-06-10T12:32:13.357Z,66.73
2019-06-10T12:33:21.387Z,66.76
2019-06-10T12:34:19.479Z,66.88
2019-06-10T12:35:23.818Z,66.95
2019-06-10T12:36:28.264Z,67.05
2019-06-10T12:37:33.841Z,66.75
2019-06-10T12:38:37.191Z,66.83
2019-06-10T12:39:42.325Z,66.91
2019-06-10T12:40:46.126Z,66.75
2019-06-10T12:41:53.195Z,66.99
2019-06-10T12:42:57.686Z,66.54
2019-06-10T12:44:00.359Z,66.91
2019-06-10T12:45:07.634Z,67.03
2019-06-10T12:46:08.556Z,66.61
2019-06-10T12:47:12.993Z,66.63
2019-06-10T12:48:17.457Z,67.02
2019-06-10T12:49:21.932Z,67.49
2019-06-10T12:50:26.408Z,67.81
2019-06-10T12:51:36.829Z,67.36
2019-06-10T12:52:40.082Z,67.13
2019-06-10T12:53:44.483Z,67.54
2019-06-10T12:54:48.952Z,67.73
2019-06-10T12:55:55.477Z,68.41
2019-06-10T12:56:58.089Z,67.46
2019-06-10T12:58:04.195Z,68.04
2019-06-10T12:59:09.864Z,68.05
2019-06-10T13:00:20.635Z,67.86
2019-06-10T13:01:15.827Z,66.84
2019-06-10T13:02:24.572Z,67.26
2019-06-10T13:03:24.859Z,67.64
2019-06-10T13:04:29.261Z,66.75
2019-06-10T13:05:33.743Z,66.33
2019-06-10T13:06:38.215Z,66.34
2019-06-10T13:07:42.982Z,66.29
2019-06-10T13:08:47.140Z,65.89
2019-06-10T13:09:52.406Z,66.12
2019-06-10T13:10:56.892Z,66.46
2019-06-10T13:43:27.424Z,68.70
2019-06-10T13:44:32.156Z,69.10
2019-06-10T13:45:43.052Z,68.74
2019-06-10T13:46:48.215Z,68.40
2019-06-10T13:47:53.071Z,68.65
2019-06-10T13:48:56.296Z,69.31
2019-06-10T13:50:03.494Z,68.73
2019-06-10T13:51:09.104Z,69.13
2019-06-10T13:52:14.013Z,69.65
2019-06-10T13:53:14.080Z,70.01
2019-06-10T13:54:18.597Z,70.08
2019-06-10T13:55:22.993Z,69.13
2019-06-10T13:56:43.036Z,69.31
2019-06-10T13:57:56.455Z,69.41
2019-06-10T13:58:59.347Z,68.81
2019-06-10T14:00:06.067Z,69.24
2019-06-10T14:01:12.009Z,68.36
2019-06-10T14:02:12.680Z,68.75
2019-06-10T14:03:17.126Z,69.13
2019-06-10T14:04:25.398Z,69.38
2019-06-10T14:08:43.940Z,68.72
2019-06-10T14:09:46.643Z,68.05
2019-06-10T14:10:53.708Z,69.35
2019-06-10T14:11:55.496Z,69.46
2019-06-10T14:13:01.424Z,68.27
2019-06-10T14:14:05.817Z,68.53
2019-06-10T14:15:10.774Z,69.57
2019-06-10T14:16:15.048Z,69.82
2019-06-10T14:17:19.643Z,69.84
2019-06-10T14:18:23.172Z,70.06
2019-06-10T14:19:26.951Z,69.54
2019-06-10T14:20:32.509Z,68.93
2019-06-10T14:21:35.999Z,69.26
2019-06-10T14:22:42.423Z,69.22
2019-06-10T14:23:44.887Z,68.75
2019-06-10T14:24:49.323Z,69.14
2019-06-10T14:25:53.795Z,69.07